sensor_id;sensor_type;location;lat;lon;timestamp;P1;durP1;ratioP1;P2;durP2;ratioP2
75818;SDS011;64453;51.944;9.796;2023-01-30T00:01:04;12.80;;;11.70;;
75818;SDS011;64453;51.944;9.796;2023-01-30T00:03:34;11.97;;;10.90;;
75818;SDS011;64453;51.944;9.796;2023-01-30T00:06:01;12.63;;;11.53;;
75818;SDS011;64453;51.944;9.796;2023-01-30T00:08:30;12.80;;;11.70;;
75818;SDS011;64453;51.944;9.796;2023-01-30T00:10:56;12.77;;;11.57;;
75818;SDS011;64453;51.944;9.796;2023-01-30T00:13:29;12.47;;;11.37;;
75818;SDS011;64453;51.944;9.796;2023-01-30T00:15:56;12.80;;;11.63;;
75818;SDS011;64453;51.944;9.796;2023-01-30T00:18:23;12.17;;;11.07;;
75818;SDS011;64453;51.944;9.796;2023-01-30T00:20:55;12.80;;;11.60;;
75818;SDS011;64453;51.944;9.796;2023-01-30T00:23:22;12.90;;;11.80;;
75818;SDS011;64453;51.944;9.796;2023-01-30T00:25:50;13.07;;;11.97;;
75818;SDS011;64453;51.944;9.796;2023-01-30T00:28:17;13.97;;;12.70;;
75818;SDS011;64453;51.944;9.796;2023-01-30T00:30:47;13.77;;;12.53;;
75818;SDS011;64453;51.944;9.796;2023-01-30T00:33:15;14.37;;;13.07;;
75818;SDS011;64453;51.944;9.796;2023-01-30T00:35:42;13.10;;;11.90;;
75818;SDS011;64453;51.944;9.796;2023-01-30T00:38:11;14.37;;;13.07;;
75818;SDS011;64453;51.944;9.796;2023-01-30T00:40:38;13.63;;;12.33;;
75818;SDS011;64453;51.944;9.796;2023-01-30T00:43:06;13.83;;;12.60;;
75818;SDS011;64453;51.944;9.796;2023-01-30T00:45:52;13.17;;;11.97;;
75818;SDS011;64453;51.944;9.796;2023-01-30T00:48:37;13.60;;;12.37;;
75818;SDS011;64453;51.944;9.796;2023-01-30T00:51:04;13.07;;;11.87;;
75818;SDS011;64453;51.944;9.796;2023-01-30T00:53:33;12.90;;;11.80;;
75818;SDS011;64453;51.944;9.796;2023-01-30T00:56:00;14.17;;;12.83;;
75818;SDS011;64453;51.944;9.796;2023-01-30T00:58:27;13.83;;;12.53;;
75818;SDS011;64453;51.944;9.796;2023-01-30T01:00:54;13.53;;;12.30;;
75818;SDS011;64453;51.944;9.796;2023-01-30T01:03:21;13.43;;;12.23;;
75818;SDS011;64453;51.944;9.796;2023-01-30T01:05:48;13.93;;;12.63;;
75818;SDS011;64453;51.944;9.796;2023-01-30T01:08:15;14.13;;;12.80;;
75818;SDS011;64453;51.944;9.796;2023-01-30T01:10:43;13.30;;;12.10;;
75818;SDS011;64453;51.944;9.796;2023-01-30T01:13:10;14.40;;;13.10;;
75818;SDS011;64453;51.944;9.796;2023-01-30T01:15:37;13.60;;;12.47;;
75818;SDS011;64453;51.944;9.796;2023-01-30T01:18:04;13.43;;;12.23;;
75818;SDS011;64453;51.944;9.796;2023-01-30T01:20:31;14.53;;;13.20;;
75818;SDS011;64453;51.944;9.796;2023-01-30T01:22:58;14.90;;;13.53;;
75818;SDS011;64453;51.944;9.796;2023-01-30T01:25:25;13.80;;;12.60;;
75818;SDS011;64453;51.944;9.796;2023-01-30T01:27:53;13.87;;;12.67;;
75818;SDS011;64453;51.944;9.796;2023-01-30T01:30:20;14.00;;;12.70;;
75818;SDS011;64453;51.944;9.796;2023-01-30T01:32:47;13.60;;;12.30;;
75818;SDS011;64453;51.944;9.796;2023-01-30T01:35:14;14.03;;;12.80;;
75818;SDS011;64453;51.944;9.796;2023-01-30T01:37:43;15.20;;;13.83;;
75818;SDS011;64453;51.944;9.796;2023-01-30T01:40:11;13.43;;;12.23;;
75818;SDS011;64453;51.944;9.796;2023-01-30T01:43:07;12.50;;;11.40;;
75818;SDS011;64453;51.944;9.796;2023-01-30T01:45:42;13.93;;;12.67;;
75818;SDS011;64453;51.944;9.796;2023-01-30T01:48:10;14.00;;;12.60;;
75818;SDS011;64453;51.944;9.796;2023-01-30T01:50:42;14.93;;;13.57;;
75818;SDS011;64453;51.944;9.796;2023-01-30T01:53:12;14.07;;;12.77;;
75818;SDS011;64453;51.944;9.796;2023-01-30T01:55:43;14.87;;;13.53;;
75818;SDS011;64453;51.944;9.796;2023-01-30T01:58:17;14.90;;;12.97;;
75818;SDS011;64453;51.944;9.796;2023-01-30T02:00:51;15.00;;;13.50;;
75818;SDS011;64453;51.944;9.796;2023-01-30T02:03:23;16.07;;;14.50;;
75818;SDS011;64453;51.944;9.796;2023-01-30T02:05:54;15.03;;;13.63;;
75818;SDS011;64453;51.944;9.796;2023-01-30T02:08:27;14.50;;;13.30;;
75818;SDS011;64453;51.944;9.796;2023-01-30T02:10:59;14.23;;;13.03;;
75818;SDS011;64453;51.944;9.796;2023-01-30T02:13:34;13.30;;;12.17;;
75818;SDS011;64453;51.944;9.796;2023-01-30T02:16:02;14.70;;;13.30;;
75818;SDS011;64453;51.944;9.796;2023-01-30T02:18:32;14.70;;;13.30;;
75818;SDS011;64453;51.944;9.796;2023-01-30T02:21:04;14.37;;;12.97;;
75818;SDS011;64453;51.944;9.796;2023-01-30T02:33:38;14.53;;;13.17;;
75818;SDS011;64453;51.944;9.796;2023-01-30T02:36:19;12.60;;;11.50;;
75818;SDS011;64453;51.944;9.796;2023-01-30T02:38:55;14.03;;;12.70;;
75818;SDS011;64453;51.944;9.796;2023-01-30T02:41:33;14.33;;;12.53;;
75818;SDS011;64453;51.944;9.796;2023-01-30T02:44:10;13.10;;;11.90;;
75818;SDS011;64453;51.944;9.796;2023-01-30T02:46:45;13.00;;;11.70;;
75818;SDS011;64453;51.944;9.796;2023-01-30T02:49:21;12.47;;;11.30;;
75818;SDS011;64453;51.944;9.796;2023-01-30T02:51:52;12.40;;;11.20;;
75818;SDS011;64453;51.944;9.796;2023-01-30T02:54:23;13.90;;;12.60;;
75818;SDS011;64453;51.944;9.796;2023-01-30T02:56:50;12.60;;;11.40;;
75818;SDS011;64453;51.944;9.796;2023-01-30T02:59:21;12.50;;;11.40;;
75818;SDS011;64453;51.944;9.796;2023-01-30T03:04:52;12.83;;;11.73;;
75818;SDS011;64453;51.944;9.796;2023-01-30T03:07:35;13.00;;;11.87;;
75818;SDS011;64453;51.944;9.796;2023-01-30T03:10:13;13.03;;;11.73;;
75818;SDS011;64453;51.944;9.796;2023-01-30T03:12:51;13.27;;;11.83;;
75818;SDS011;64453;51.944;9.796;2023-01-30T03:15:24;12.53;;;11.33;;
75818;SDS011;64453;51.944;9.796;2023-01-30T03:18:00;13.30;;;11.93;;
75818;SDS011;64453;51.944;9.796;2023-01-30T03:20:28;14.27;;;12.97;;
75818;SDS011;64453;51.944;9.796;2023-01-30T03:22:56;13.80;;;12.50;;
75818;SDS011;64453;51.944;9.796;2023-01-30T03:25:25;13.03;;;11.80;;
75818;SDS011;64453;51.944;9.796;2023-01-30T03:27:52;13.50;;;12.20;;
75818;SDS011;64453;51.944;9.796;2023-01-30T03:30:20;12.13;;;11.03;;
75818;SDS011;64453;51.944;9.796;2023-01-30T03:32:50;12.30;;;11.20;;
75818;SDS011;64453;51.944;9.796;2023-01-30T03:35:18;12.90;;;11.70;;
75818;SDS011;64453;51.944;9.796;2023-01-30T03:37:45;11.87;;;10.77;;
75818;SDS011;64453;51.944;9.796;2023-01-30T03:40:13;13.80;;;12.60;;
75818;SDS011;64453;51.944;9.796;2023-01-30T03:42:42;12.70;;;11.57;;
75818;SDS011;64453;51.944;9.796;2023-01-30T03:45:09;12.33;;;11.23;;
75818;SDS011;64453;51.944;9.796;2023-01-30T03:47:37;11.90;;;10.80;;
75818;SDS011;64453;51.944;9.796;2023-01-30T03:50:04;12.67;;;11.47;;
75818;SDS011;64453;51.944;9.796;2023-01-30T03:52:34;13.37;;;12.07;;
75818;SDS011;64453;51.944;9.796;2023-01-30T03:55:02;13.80;;;12.50;;
75818;SDS011;64453;51.944;9.796;2023-01-30T03:57:29;12.80;;;11.60;;
75818;SDS011;64453;51.944;9.796;2023-01-30T03:59:56;13.47;;;12.17;;
75818;SDS011;64453;51.944;9.796;2023-01-30T04:02:23;12.60;;;11.50;;
75818;SDS011;64453;51.944;9.796;2023-01-30T04:04:50;12.10;;;11.07;;
75818;SDS011;64453;51.944;9.796;2023-01-30T04:07:17;12.20;;;11.10;;
75818;SDS011;64453;51.944;9.796;2023-01-30T04:09:45;11.87;;;10.80;;
75818;SDS011;64453;51.944;9.796;2023-01-30T04:12:12;11.70;;;10.70;;
75818;SDS011;64453;51.944;9.796;2023-01-30T04:14:39;12.60;;;11.50;;
75818;SDS011;64453;51.944;9.796;2023-01-30T04:17:06;13.00;;;11.80;;
75818;SDS011;64453;51.944;9.796;2023-01-30T04:19:33;12.40;;;11.10;;
75818;SDS011;64453;51.944;9.796;2023-01-30T04:22:00;12.50;;;11.30;;
75818;SDS011;64453;51.944;9.796;2023-01-30T04:24:27;12.70;;;11.50;;
75818;SDS011;64453;51.944;9.796;2023-01-30T04:26:55;12.20;;;11.10;;
75818;SDS011;64453;51.944;9.796;2023-01-30T04:29:22;11.43;;;10.40;;
75818;SDS011;64453;51.944;9.796;2023-01-30T04:31:49;13.40;;;12.10;;
75818;SDS011;64453;51.944;9.796;2023-01-30T04:34:15;13.37;;;12.07;;
75818;SDS011;64453;51.944;9.796;2023-01-30T04:36:42;10.90;;;10.00;;
75818;SDS011;64453;51.944;9.796;2023-01-30T04:39:09;11.73;;;10.63;;
75818;SDS011;64453;51.944;9.796;2023-01-30T04:41:36;11.33;;;10.40;;
75818;SDS011;64453;51.944;9.796;2023-01-30T04:44:05;11.97;;;10.77;;
75818;SDS011;64453;51.944;9.796;2023-01-30T04:46:32;11.87;;;10.70;;
75818;SDS011;64453;51.944;9.796;2023-01-30T04:49:00;10.03;;;9.13;;
75818;SDS011;64453;51.944;9.796;2023-01-30T04:51:26;9.63;;;8.83;;
75818;SDS011;64453;51.944;9.796;2023-01-30T04:53:53;9.40;;;8.60;;
75818;SDS011;64453;51.944;9.796;2023-01-30T04:56:20;8.00;;;7.40;;
75818;SDS011;64453;51.944;9.796;2023-01-30T04:58:47;8.43;;;7.57;;
75818;SDS011;64453;51.944;9.796;2023-01-30T05:01:18;8.03;;;7.37;;
75818;SDS011;64453;51.944;9.796;2023-01-30T05:03:49;6.80;;;6.30;;
75818;SDS011;64453;51.944;9.796;2023-01-30T05:06:16;7.60;;;7.00;;
75818;SDS011;64453;51.944;9.796;2023-01-30T05:08:43;7.00;;;6.50;;
75818;SDS011;64453;51.944;9.796;2023-01-30T05:11:14;7.73;;;7.13;;
75818;SDS011;64453;51.944;9.796;2023-01-30T05:13:40;7.23;;;6.60;;
75818;SDS011;64453;51.944;9.796;2023-01-30T05:16:08;7.13;;;6.53;;
75818;SDS011;64453;51.944;9.796;2023-01-30T05:18:36;7.57;;;6.93;;
75818;SDS011;64453;51.944;9.796;2023-01-30T05:21:04;6.10;;;5.60;;
75818;SDS011;64453;51.944;9.796;2023-01-30T05:23:32;5.80;;;5.40;;
75818;SDS011;64453;51.944;9.796;2023-01-30T05:25:59;5.57;;;5.10;;
75818;SDS011;64453;51.944;9.796;2023-01-30T05:28:26;5.90;;;5.43;;
75818;SDS011;64453;51.944;9.796;2023-01-30T05:30:54;5.60;;;5.30;;
75818;SDS011;64453;51.944;9.796;2023-01-30T05:33:27;5.30;;;4.90;;
75818;SDS011;64453;51.944;9.796;2023-01-30T05:35:55;5.73;;;5.33;;
75818;SDS011;64453;51.944;9.796;2023-01-30T05:38:23;5.83;;;5.43;;
75818;SDS011;64453;51.944;9.796;2023-01-30T05:40:56;5.60;;;5.17;;
75818;SDS011;64453;51.944;9.796;2023-01-30T05:43:25;5.50;;;5.10;;
75818;SDS011;64453;51.944;9.796;2023-01-30T05:45:52;6.00;;;5.60;;
75818;SDS011;64453;51.944;9.796;2023-01-30T05:48:19;5.43;;;5.03;;
75818;SDS011;64453;51.944;9.796;2023-01-30T05:50:47;4.90;;;4.60;;
75818;SDS011;64453;51.944;9.796;2023-01-30T05:53:17;5.47;;;5.07;;
75818;SDS011;64453;51.944;9.796;2023-01-30T05:55:44;4.93;;;4.63;;
75818;SDS011;64453;51.944;9.796;2023-01-30T05:58:11;6.17;;;5.77;;
75818;SDS011;64453;51.944;9.796;2023-01-30T06:00:38;5.90;;;5.47;;
75818;SDS011;64453;51.944;9.796;2023-01-30T06:03:04;7.10;;;6.50;;
75818;SDS011;64453;51.944;9.796;2023-01-30T06:05:31;5.93;;;5.53;;
75818;SDS011;64453;51.944;9.796;2023-01-30T06:07:58;6.60;;;6.00;;
75818;SDS011;64453;51.944;9.796;2023-01-30T06:10:26;6.30;;;5.90;;
75818;SDS011;64453;51.944;9.796;2023-01-30T06:12:53;6.03;;;5.60;;
75818;SDS011;64453;51.944;9.796;2023-01-30T06:15:20;6.77;;;6.27;;
75818;SDS011;64453;51.944;9.796;2023-01-30T06:17:47;6.90;;;6.40;;
75818;SDS011;64453;51.944;9.796;2023-01-30T06:20:14;6.60;;;6.13;;
75818;SDS011;64453;51.944;9.796;2023-01-30T06:22:41;7.40;;;6.90;;
75818;SDS011;64453;51.944;9.796;2023-01-30T06:25:08;6.90;;;6.33;;
75818;SDS011;64453;51.944;9.796;2023-01-30T06:27:37;5.77;;;5.47;;
75818;SDS011;64453;51.944;9.796;2023-01-30T06:30:04;7.93;;;7.33;;
75818;SDS011;64453;51.944;9.796;2023-01-30T06:32:32;7.47;;;6.87;;
75818;SDS011;64453;51.944;9.796;2023-01-30T06:34:58;7.07;;;6.57;;
75818;SDS011;64453;51.944;9.796;2023-01-30T06:37:25;8.10;;;7.50;;
75818;SDS011;64453;51.944;9.796;2023-01-30T06:39:52;7.47;;;6.97;;
75818;SDS011;64453;51.944;9.796;2023-01-30T06:42:19;7.23;;;6.73;;
75818;SDS011;64453;51.944;9.796;2023-01-30T06:44:47;6.57;;;6.17;;
75818;SDS011;64453;51.944;9.796;2023-01-30T06:47:14;7.37;;;6.87;;
75818;SDS011;64453;51.944;9.796;2023-01-30T06:49:41;7.10;;;6.67;;
75818;SDS011;64453;51.944;9.796;2023-01-30T06:52:08;7.60;;;7.00;;
75818;SDS011;64453;51.944;9.796;2023-01-30T06:54:35;6.07;;;5.67;;
75818;SDS011;64453;51.944;9.796;2023-01-30T06:57:02;5.80;;;5.43;;
75818;SDS011;64453;51.944;9.796;2023-01-30T06:59:29;5.50;;;4.93;;
75818;SDS011;64453;51.944;9.796;2023-01-30T07:01:57;5.17;;;4.87;;
75818;SDS011;64453;51.944;9.796;2023-01-30T07:04:24;4.80;;;4.50;;
75818;SDS011;64453;51.944;9.796;2023-01-30T07:06:51;4.57;;;4.20;;
75818;SDS011;64453;51.944;9.796;2023-01-30T07:09:18;3.80;;;3.50;;
75818;SDS011;64453;51.944;9.796;2023-01-30T07:11:44;3.30;;;3.10;;
75818;SDS011;64453;51.944;9.796;2023-01-30T07:14:13;4.80;;;3.33;;
75818;SDS011;64453;51.944;9.796;2023-01-30T07:16:40;2.80;;;2.70;;
75818;SDS011;64453;51.944;9.796;2023-01-30T07:19:08;2.17;;;2.07;;
75818;SDS011;64453;51.944;9.796;2023-01-30T07:21:35;2.40;;;2.27;;
75818;SDS011;64453;51.944;9.796;2023-01-30T07:24:02;2.60;;;2.30;;
75818;SDS011;64453;51.944;9.796;2023-01-30T07:26:30;2.07;;;2.03;;
75818;SDS011;64453;51.944;9.796;2023-01-30T07:28:57;3.07;;;2.60;;
75818;SDS011;64453;51.944;9.796;2023-01-30T07:31:24;2.37;;;2.17;;
75818;SDS011;64453;51.944;9.796;2023-01-30T07:33:51;2.60;;;2.40;;
75818;SDS011;64453;51.944;9.796;2023-01-30T07:36:19;2.97;;;2.77;;
75818;SDS011;64453;51.944;9.796;2023-01-30T07:38:46;3.30;;;3.10;;
75818;SDS011;64453;51.944;9.796;2023-01-30T07:41:14;4.10;;;2.73;;
75818;SDS011;64453;51.944;9.796;2023-01-30T07:43:40;3.47;;;3.27;;
75818;SDS011;64453;51.944;9.796;2023-01-30T07:46:07;3.30;;;3.10;;
75818;SDS011;64453;51.944;9.796;2023-01-30T07:48:34;4.47;;;3.57;;
75818;SDS011;64453;51.944;9.796;2023-01-30T07:51:01;5.50;;;3.73;;
75818;SDS011;64453;51.944;9.796;2023-01-30T07:53:29;3.87;;;3.47;;
75818;SDS011;64453;51.944;9.796;2023-01-30T07:55:56;3.93;;;3.60;;
75818;SDS011;64453;51.944;9.796;2023-01-30T07:58:24;4.83;;;4.30;;
75818;SDS011;64453;51.944;9.796;2023-01-30T08:00:53;4.00;;;3.37;;
75818;SDS011;64453;51.944;9.796;2023-01-30T08:03:20;3.73;;;3.10;;
75818;SDS011;64453;51.944;9.796;2023-01-30T08:05:47;3.23;;;3.03;;
75818;SDS011;64453;51.944;9.796;2023-01-30T08:08:14;4.20;;;3.50;;
75818;SDS011;64453;51.944;9.796;2023-01-30T08:10:43;5.57;;;4.30;;
75818;SDS011;64453;51.944;9.796;2023-01-30T08:13:10;4.27;;;3.87;;
75818;SDS011;64453;51.944;9.796;2023-01-30T08:15:36;6.10;;;3.23;;
75818;SDS011;64453;51.944;9.796;2023-01-30T08:18:03;4.23;;;3.03;;
75818;SDS011;64453;51.944;9.796;2023-01-30T08:20:32;7.17;;;3.23;;
75818;SDS011;64453;51.944;9.796;2023-01-30T08:22:59;4.70;;;2.70;;
75818;SDS011;64453;51.944;9.796;2023-01-30T08:25:27;4.70;;;2.90;;
75818;SDS011;64453;51.944;9.796;2023-01-30T08:27:57;3.37;;;2.70;;
75818;SDS011;64453;51.944;9.796;2023-01-30T08:30:24;7.20;;;2.70;;
75818;SDS011;64453;51.944;9.796;2023-01-30T08:32:51;5.37;;;2.97;;
75818;SDS011;64453;51.944;9.796;2023-01-30T08:35:17;5.60;;;2.80;;
75818;SDS011;64453;51.944;9.796;2023-01-30T08:37:45;4.70;;;2.83;;
75818;SDS011;64453;51.944;9.796;2023-01-30T08:40:12;7.60;;;2.80;;
75818;SDS011;64453;51.944;9.796;2023-01-30T08:42:39;7.43;;;3.17;;
75818;SDS011;64453;51.944;9.796;2023-01-30T08:45:10;5.87;;;3.40;;
75818;SDS011;64453;51.944;9.796;2023-01-30T08:47:37;6.00;;;3.07;;
75818;SDS011;64453;51.944;9.796;2023-01-30T08:50:05;6.00;;;3.00;;
75818;SDS011;64453;51.944;9.796;2023-01-30T08:52:33;6.90;;;3.20;;
75818;SDS011;64453;51.944;9.796;2023-01-30T08:55:00;6.30;;;2.87;;
75818;SDS011;64453;51.944;9.796;2023-01-30T08:57:27;5.70;;;2.50;;
75818;SDS011;64453;51.944;9.796;2023-01-30T08:59:53;7.70;;;2.70;;
75818;SDS011;64453;51.944;9.796;2023-01-30T09:02:22;8.67;;;2.77;;
75818;SDS011;64453;51.944;9.796;2023-01-30T09:04:49;4.17;;;2.17;;
75818;SDS011;64453;51.944;9.796;2023-01-30T09:07:15;6.97;;;2.80;;
75818;SDS011;64453;51.944;9.796;2023-01-30T09:09:43;7.70;;;2.57;;
75818;SDS011;64453;51.944;9.796;2023-01-30T09:12:10;5.20;;;2.33;;
75818;SDS011;64453;51.944;9.796;2023-01-30T09:14:36;4.90;;;2.23;;
75818;SDS011;64453;51.944;9.796;2023-01-30T09:17:03;5.13;;;1.97;;
75818;SDS011;64453;51.944;9.796;2023-01-30T09:19:31;6.30;;;2.67;;
75818;SDS011;64453;51.944;9.796;2023-01-30T09:22:01;7.83;;;3.00;;
75818;SDS011;64453;51.944;9.796;2023-01-30T09:24:28;6.07;;;2.37;;
75818;SDS011;64453;51.944;9.796;2023-01-30T09:26:55;9.60;;;2.80;;
75818;SDS011;64453;51.944;9.796;2023-01-30T09:29:23;7.40;;;2.20;;
75818;SDS011;64453;51.944;9.796;2023-01-30T09:31:50;6.77;;;2.23;;
75818;SDS011;64453;51.944;9.796;2023-01-30T09:34:17;5.73;;;2.10;;
75818;SDS011;64453;51.944;9.796;2023-01-30T09:36:45;9.53;;;2.30;;
75818;SDS011;64453;51.944;9.796;2023-01-30T09:39:12;8.27;;;2.77;;
75818;SDS011;64453;51.944;9.796;2023-01-30T09:47:56;7.60;;;2.27;;
75818;SDS011;64453;51.944;9.796;2023-01-30T09:50:40;7.33;;;2.30;;
75818;SDS011;64453;51.944;9.796;2023-01-30T09:53:34;8.43;;;3.17;;
75818;SDS011;64453;51.944;9.796;2023-01-30T09:56:06;12.57;;;2.83;;
75818;SDS011;64453;51.944;9.796;2023-01-30T09:58:36;5.17;;;2.17;;
75818;SDS011;64453;51.944;9.796;2023-01-30T10:01:12;7.70;;;2.57;;
75818;SDS011;64453;51.944;9.796;2023-01-30T10:03:53;9.03;;;2.27;;
75818;SDS011;64453;51.944;9.796;2023-01-30T10:06:27;6.40;;;2.30;;
75818;SDS011;64453;51.944;9.796;2023-01-30T10:08:59;8.63;;;2.50;;
75818;SDS011;64453;51.944;9.796;2023-01-30T10:11:39;6.53;;;2.20;;
75818;SDS011;64453;51.944;9.796;2023-01-30T10:14:21;10.43;;;2.57;;
75818;SDS011;64453;51.944;9.796;2023-01-30T10:17:09;7.97;;;2.40;;
75818;SDS011;64453;51.944;9.796;2023-01-30T10:20:15;6.77;;;2.37;;
75818;SDS011;64453;51.944;9.796;2023-01-30T10:22:59;6.43;;;2.87;;
75818;SDS011;64453;51.944;9.796;2023-01-30T10:25:44;11.30;;;2.67;;
75818;SDS011;64453;51.944;9.796;2023-01-30T10:28:17;7.57;;;2.67;;
75818;SDS011;64453;51.944;9.796;2023-01-30T10:30:52;8.80;;;2.23;;
75818;SDS011;64453;51.944;9.796;2023-01-30T10:33:29;7.80;;;2.10;;
75818;SDS011;64453;51.944;9.796;2023-01-30T10:36:02;8.90;;;2.50;;
75818;SDS011;64453;51.944;9.796;2023-01-30T10:38:34;10.03;;;2.70;;
75818;SDS011;64453;51.944;9.796;2023-01-30T10:41:09;6.70;;;2.10;;
75818;SDS011;64453;51.944;9.796;2023-01-30T10:43:47;8.17;;;2.53;;
75818;SDS011;64453;51.944;9.796;2023-01-30T10:46:32;8.73;;;2.50;;
75818;SDS011;64453;51.944;9.796;2023-01-30T10:49:17;8.90;;;2.53;;
75818;SDS011;64453;51.944;9.796;2023-01-30T10:51:53;8.13;;;2.50;;
75818;SDS011;64453;51.944;9.796;2023-01-30T10:54:29;6.93;;;2.70;;
75818;SDS011;64453;51.944;9.796;2023-01-30T10:57:05;10.83;;;2.90;;
75818;SDS011;64453;51.944;9.796;2023-01-30T10:59:44;6.90;;;2.90;;
75818;SDS011;64453;51.944;9.796;2023-01-30T11:02:22;5.37;;;1.80;;
75818;SDS011;64453;51.944;9.796;2023-01-30T11:04:55;9.23;;;2.57;;
75818;SDS011;64453;51.944;9.796;2023-01-30T11:07:24;10.37;;;3.40;;
75818;SDS011;64453;51.944;9.796;2023-01-30T11:09:57;9.57;;;2.10;;
75818;SDS011;64453;51.944;9.796;2023-01-30T11:12:26;6.80;;;2.20;;
75818;SDS011;64453;51.944;9.796;2023-01-30T11:14:57;5.40;;;2.40;;
75818;SDS011;64453;51.944;9.796;2023-01-30T11:17:29;8.53;;;3.23;;
75818;SDS011;64453;51.944;9.796;2023-01-30T11:20:07;5.00;;;2.20;;
75818;SDS011;64453;51.944;9.796;2023-01-30T11:22:44;11.77;;;2.80;;
75818;SDS011;64453;51.944;9.796;2023-01-30T11:25:13;8.57;;;2.77;;
75818;SDS011;64453;51.944;9.796;2023-01-30T11:27:50;8.60;;;2.27;;
75818;SDS011;64453;51.944;9.796;2023-01-30T11:30:20;9.83;;;2.30;;
75818;SDS011;64453;51.944;9.796;2023-01-30T11:32:53;8.63;;;2.60;;
75818;SDS011;64453;51.944;9.796;2023-01-30T11:35:33;8.77;;;2.97;;
75818;SDS011;64453;51.944;9.796;2023-01-30T11:38:10;8.10;;;2.57;;
75818;SDS011;64453;51.944;9.796;2023-01-30T11:40:46;7.00;;;2.60;;
75818;SDS011;64453;51.944;9.796;2023-01-30T11:43:14;8.87;;;2.80;;
75818;SDS011;64453;51.944;9.796;2023-01-30T11:45:42;9.87;;;3.37;;
75818;SDS011;64453;51.944;9.796;2023-01-30T11:48:14;7.77;;;2.30;;
75818;SDS011;64453;51.944;9.796;2023-01-30T11:50:45;10.30;;;2.37;;
75818;SDS011;64453;51.944;9.796;2023-01-30T11:53:24;10.87;;;3.10;;
75818;SDS011;64453;51.944;9.796;2023-01-30T11:55:58;8.13;;;2.70;;
75818;SDS011;64453;51.944;9.796;2023-01-30T11:58:32;10.80;;;5.90;;
75818;SDS011;64453;51.944;9.796;2023-01-30T12:01:03;6.00;;;2.70;;
75818;SDS011;64453;51.944;9.796;2023-01-30T12:03:34;9.07;;;3.00;;
75818;SDS011;64453;51.944;9.796;2023-01-30T12:06:10;10.10;;;2.53;;
75818;SDS011;64453;51.944;9.796;2023-01-30T12:08:46;7.83;;;2.87;;
75818;SDS011;64453;51.944;9.796;2023-01-30T12:11:23;7.93;;;3.50;;
75818;SDS011;64453;51.944;9.796;2023-01-30T12:16:59;8.87;;;2.50;;
75818;SDS011;64453;51.944;9.796;2023-01-30T12:19:35;9.50;;;3.40;;
75818;SDS011;64453;51.944;9.796;2023-01-30T12:22:17;10.47;;;3.20;;
75818;SDS011;64453;51.944;9.796;2023-01-30T12:24:51;9.67;;;2.70;;
75818;SDS011;64453;51.944;9.796;2023-01-30T12:27:27;10.33;;;2.83;;
75818;SDS011;64453;51.944;9.796;2023-01-30T12:30:20;8.33;;;2.30;;
75818;SDS011;64453;51.944;9.796;2023-01-30T12:32:55;11.40;;;3.07;;
75818;SDS011;64453;51.944;9.796;2023-01-30T12:35:27;10.80;;;3.40;;
75818;SDS011;64453;51.944;9.796;2023-01-30T12:38:05;10.53;;;3.20;;
75818;SDS011;64453;51.944;9.796;2023-01-30T12:40:49;6.70;;;2.50;;
75818;SDS011;64453;51.944;9.796;2023-01-30T12:43:33;11.50;;;3.70;;
75818;SDS011;64453;51.944;9.796;2023-01-30T12:46:32;9.70;;;3.00;;
75818;SDS011;64453;51.944;9.796;2023-01-30T12:49:29;9.77;;;2.80;;
75818;SDS011;64453;51.944;9.796;2023-01-30T12:55:25;11.70;;;2.67;;
75818;SDS011;64453;51.944;9.796;2023-01-30T12:58:05;9.40;;;2.50;;
75818;SDS011;64453;51.944;9.796;2023-01-30T13:00:43;6.77;;;2.93;;
75818;SDS011;64453;51.944;9.796;2023-01-30T13:03:25;6.07;;;2.67;;
75818;SDS011;64453;51.944;9.796;2023-01-30T13:06:05;6.77;;;2.60;;
75818;SDS011;64453;51.944;9.796;2023-01-30T13:08:48;7.70;;;2.60;;
75818;SDS011;64453;51.944;9.796;2023-01-30T13:11:39;10.37;;;2.83;;
75818;SDS011;64453;51.944;9.796;2023-01-30T13:14:21;11.30;;;3.20;;
75818;SDS011;64453;51.944;9.796;2023-01-30T13:16:59;8.10;;;2.97;;
75818;SDS011;64453;51.944;9.796;2023-01-30T13:19:44;8.97;;;2.77;;
75818;SDS011;64453;51.944;9.796;2023-01-30T13:22:19;6.77;;;2.10;;
75818;SDS011;64453;51.944;9.796;2023-01-30T13:24:52;6.83;;;2.67;;
75818;SDS011;64453;51.944;9.796;2023-01-30T13:27:29;10.80;;;2.33;;
75818;SDS011;64453;51.944;9.796;2023-01-30T13:30:02;9.33;;;3.13;;
75818;SDS011;64453;51.944;9.796;2023-01-30T13:32:34;9.00;;;3.03;;
75818;SDS011;64453;51.944;9.796;2023-01-30T13:35:08;8.43;;;2.53;;
75818;SDS011;64453;51.944;9.796;2023-01-30T13:37:42;11.03;;;3.47;;
75818;SDS011;64453;51.944;9.796;2023-01-30T13:40:14;6.40;;;2.43;;
75818;SDS011;64453;51.944;9.796;2023-01-30T13:42:45;7.47;;;3.00;;
75818;SDS011;64453;51.944;9.796;2023-01-30T13:45:17;10.43;;;2.63;;
75818;SDS011;64453;51.944;9.796;2023-01-30T13:47:51;8.17;;;2.90;;
75818;SDS011;64453;51.944;9.796;2023-01-30T13:53:29;5.13;;;2.40;;
75818;SDS011;64453;51.944;9.796;2023-01-30T13:56:04;6.53;;;2.77;;
75818;SDS011;64453;51.944;9.796;2023-01-30T13:58:45;6.07;;;2.43;;
75818;SDS011;64453;51.944;9.796;2023-01-30T14:01:15;4.33;;;2.20;;
75818;SDS011;64453;51.944;9.796;2023-01-30T14:03:43;11.13;;;2.33;;
75818;SDS011;64453;51.944;9.796;2023-01-30T14:06:12;5.87;;;2.37;;
75818;SDS011;64453;51.944;9.796;2023-01-30T14:09:02;4.50;;;1.70;;
75818;SDS011;64453;51.944;9.796;2023-01-30T14:11:46;5.20;;;1.80;;
75818;SDS011;64453;51.944;9.796;2023-01-30T14:14:22;7.10;;;2.20;;
75818;SDS011;64453;51.944;9.796;2023-01-30T14:16:54;6.03;;;2.20;;
75818;SDS011;64453;51.944;9.796;2023-01-30T14:19:34;9.00;;;2.10;;
75818;SDS011;64453;51.944;9.796;2023-01-30T14:22:18;8.10;;;1.93;;
75818;SDS011;64453;51.944;9.796;2023-01-30T14:37:27;5.50;;;1.90;;
75818;SDS011;64453;51.944;9.796;2023-01-30T14:49:22;5.10;;;1.97;;
75818;SDS011;64453;51.944;9.796;2023-01-30T14:51:53;7.50;;;2.20;;
75818;SDS011;64453;51.944;9.796;2023-01-30T14:54:24;7.57;;;2.60;;
75818;SDS011;64453;51.944;9.796;2023-01-30T14:57:00;11.83;;;4.03;;
75818;SDS011;64453;51.944;9.796;2023-01-30T14:59:30;7.27;;;2.43;;
75818;SDS011;64453;51.944;9.796;2023-01-30T15:02:07;5.60;;;1.80;;
75818;SDS011;64453;51.944;9.796;2023-01-30T15:04:47;12.33;;;3.10;;
75818;SDS011;64453;51.944;9.796;2023-01-30T15:07:22;14.20;;;2.70;;
75818;SDS011;64453;51.944;9.796;2023-01-30T15:09:54;5.73;;;2.70;;
75818;SDS011;64453;51.944;9.796;2023-01-30T15:12:33;9.00;;;2.13;;
75818;SDS011;64453;51.944;9.796;2023-01-30T15:15:25;5.67;;;2.80;;
75818;SDS011;64453;51.944;9.796;2023-01-30T15:18:02;10.50;;;4.17;;
75818;SDS011;64453;51.944;9.796;2023-01-30T15:20:46;13.63;;;5.33;;
75818;SDS011;64453;51.944;9.796;2023-01-30T15:23:47;9.33;;;3.10;;
75818;SDS011;64453;51.944;9.796;2023-01-30T15:26:31;11.80;;;3.40;;
75818;SDS011;64453;51.944;9.796;2023-01-30T15:29:36;7.10;;;2.90;;
75818;SDS011;64453;51.944;9.796;2023-01-30T15:32:30;9.63;;;2.50;;
75818;SDS011;64453;51.944;9.796;2023-01-30T15:34:58;7.27;;;2.23;;
75818;SDS011;64453;51.944;9.796;2023-01-30T15:37:32;12.17;;;3.07;;
75818;SDS011;64453;51.944;9.796;2023-01-30T15:40:16;6.50;;;2.17;;
75818;SDS011;64453;51.944;9.796;2023-01-30T15:42:47;10.50;;;2.27;;
75818;SDS011;64453;51.944;9.796;2023-01-30T15:45:18;9.10;;;2.83;;
75818;SDS011;64453;51.944;9.796;2023-01-30T15:47:59;8.30;;;3.40;;
75818;SDS011;64453;51.944;9.796;2023-01-30T15:50:46;9.40;;;2.47;;
75818;SDS011;64453;51.944;9.796;2023-01-30T15:53:14;6.63;;;2.10;;
75818;SDS011;64453;51.944;9.796;2023-01-30T15:55:42;6.30;;;2.43;;